sensor_id;sensor_type;location;lat;lon;timestamp;temperature;humidity
22678;DHT22;26259;50.214;18.620;2022-12-29T00:01:34;1.70;99.90
22678;DHT22;26259;50.214;18.620;2022-12-29T00:04:00;1.70;99.90
22678;DHT22;26259;50.214;18.620;2022-12-29T00:06:25;1.70;99.90
22678;DHT22;26259;50.214;18.620;2022-12-29T00:08:51;1.70;99.90
22678;DHT22;26259;50.214;18.620;2022-12-29T00:11:22;1.70;99.90
22678;DHT22;26259;50.214;18.620;2022-12-29T00:13:49;1.70;99.90
22678;DHT22;26259;50.214;18.620;2022-12-29T00:16:34;1.70;99.90
22678;DHT22;26259;50.214;18.620;2022-12-29T00:19:00;1.70;99.90
22678;DHT22;26259;50.214;18.620;2022-12-29T00:21:27;1.90;99.90
22678;DHT22;26259;50.214;18.620;2022-12-29T00:24:16;2.00;99.90
22678;DHT22;26259;50.214;18.620;2022-12-29T00:29:48;2.00;99.90
22678;DHT22;26259;50.214;18.620;2022-12-29T00:32:32;2.00;99.90
22678;DHT22;26259;50.214;18.620;2022-12-29T00:35:44;2.00;99.90
22678;DHT22;26259;50.214;18.620;2022-12-29T00:38:12;2.00;99.90
22678;DHT22;26259;50.214;18.620;2022-12-29T00:40:57;2.00;99.90
22678;DHT22;26259;50.214;18.620;2022-12-29T00:43:41;2.00;99.90
22678;DHT22;26259;50.214;18.620;2022-12-29T00:46:25;2.10;99.90
22678;DHT22;26259;50.214;18.620;2022-12-29T00:48:51;2.20;99.90
22678;DHT22;26259;50.214;18.620;2022-12-29T00:51:35;2.30;99.90
22678;DHT22;26259;50.214;18.620;2022-12-29T00:54:01;2.40;99.90
22678;DHT22;26259;50.214;18.620;2022-12-29T00:56:26;2.50;99.90
22678;DHT22;26259;50.214;18.620;2022-12-29T00:58:52;2.70;99.90
22678;DHT22;26259;50.214;18.620;2022-12-29T01:01:17;2.90;99.90
22678;DHT22;26259;50.214;18.620;2022-12-29T01:03:43;3.10;99.90
22678;DHT22;26259;50.214;18.620;2022-12-29T01:06:11;3.30;99.90
22678;DHT22;26259;50.214;18.620;2022-12-29T01:08:37;3.40;99.90
22678;DHT22;26259;50.214;18.620;2022-12-29T01:11:07;3.50;99.90
22678;DHT22;26259;50.214;18.620;2022-12-29T01:13:34;3.50;99.90
22678;DHT22;26259;50.214;18.620;2022-12-29T01:15:59;3.60;99.90
22678;DHT22;26259;50.214;18.620;2022-12-29T01:18:26;3.60;99.90
22678;DHT22;26259;50.214;18.620;2022-12-29T01:21:02;3.90;99.90
22678;DHT22;26259;50.214;18.620;2022-12-29T01:23:28;4.00;99.90
22678;DHT22;26259;50.214;18.620;2022-12-29T01:25:53;4.20;99.90
22678;DHT22;26259;50.214;18.620;2022-12-29T01:28:19;4.30;99.90
22678;DHT22;26259;50.214;18.620;2022-12-29T01:30:45;4.40;99.90
22678;DHT22;26259;50.214;18.620;2022-12-29T01:33:10;4.50;99.90
22678;DHT22;26259;50.214;18.620;2022-12-29T01:35:36;4.50;99.90
22678;DHT22;26259;50.214;18.620;2022-12-29T01:38:01;4.50;99.90
22678;DHT22;26259;50.214;18.620;2022-12-29T01:40:27;4.50;99.90
22678;DHT22;26259;50.214;18.620;2022-12-29T01:42:53;4.50;99.90
22678;DHT22;26259;50.214;18.620;2022-12-29T01:45:19;4.50;99.90
22678;DHT22;26259;50.214;18.620;2022-12-29T01:47:48;4.40;99.90
22678;DHT22;26259;50.214;18.620;2022-12-29T01:50:16;4.40;99.90
22678;DHT22;26259;50.214;18.620;2022-12-29T01:52:54;4.40;99.90
22678;DHT22;26259;50.214;18.620;2022-12-29T01:55:21;4.40;99.90
22678;DHT22;26259;50.214;18.620;2022-12-29T01:57:49;4.40;99.90
22678;DHT22;26259;50.214;18.620;2022-12-29T02:00:16;4.50;99.90
22678;DHT22;26259;50.214;18.620;2022-12-29T02:02:52;4.60;99.90
22678;DHT22;26259;50.214;18.620;2022-12-29T02:05:42;4.60;99.90
22678;DHT22;26259;50.214;18.620;2022-12-29T02:08:09;4.60;99.90
22678;DHT22;26259;50.214;18.620;2022-12-29T02:10:36;4.70;99.90
22678;DHT22;26259;50.214;18.620;2022-12-29T02:13:02;4.70;99.90
22678;DHT22;26259;50.214;18.620;2022-12-29T02:24:45;4.60;99.90
22678;DHT22;26259;50.214;18.620;2022-12-29T02:30:16;4.40;99.90
22678;DHT22;26259;50.214;18.620;2022-12-29T02:33:02;4.30;99.90
22678;DHT22;26259;50.214;18.620;2022-12-29T02:46:57;4.00;99.90
22678;DHT22;26259;50.214;18.620;2022-12-29T02:49:33;4.10;99.90
22678;DHT22;26259;50.214;18.620;2022-12-29T02:54:32;4.20;99.90
22678;DHT22;26259;50.214;18.620;2022-12-29T02:57:28;4.30;99.90
22678;DHT22;26259;50.214;18.620;2022-12-29T03:00:14;4.30;99.90
22678;DHT22;26259;50.214;18.620;2022-12-29T03:03:02;4.40;99.90
22678;DHT22;26259;50.214;18.620;2022-12-29T03:08:35;4.40;99.90
22678;DHT22;26259;50.214;18.620;2022-12-29T03:11:05;4.40;99.90
22678;DHT22;26259;50.214;18.620;2022-12-29T03:13:56;4.40;99.90
22678;DHT22;26259;50.214;18.620;2022-12-29T03:16:59;4.30;99.90
22678;DHT22;26259;50.214;18.620;2022-12-29T03:19:30;4.20;99.90
22678;DHT22;26259;50.214;18.620;2022-12-29T03:22:01;4.10;99.90
22678;DHT22;26259;50.214;18.620;2022-12-29T03:24:51;4.00;99.90
22678;DHT22;26259;50.214;18.620;2022-12-29T03:27:21;3.80;99.90
22678;DHT22;26259;50.214;18.620;2022-12-29T03:29:50;3.70;99.90
22678;DHT22;26259;50.214;18.620;2022-12-29T03:32:26;3.60;99.90
22678;DHT22;26259;50.214;18.620;2022-12-29T03:34:54;3.40;99.90
22678;DHT22;26259;50.214;18.620;2022-12-29T03:37:27;3.40;99.90
22678;DHT22;26259;50.214;18.620;2022-12-29T03:39:55;3.30;99.90
22678;DHT22;26259;50.214;18.620;2022-12-29T03:42:23;3.40;99.90
22678;DHT22;26259;50.214;18.620;2022-12-29T03:44:53;3.40;99.90
22678;DHT22;26259;50.214;18.620;2022-12-29T03:47:21;3.40;99.90
22678;DHT22;26259;50.214;18.620;2022-12-29T03:49:47;3.40;99.90
22678;DHT22;26259;50.214;18.620;2022-12-29T03:52:13;3.40;99.90
22678;DHT22;26259;50.214;18.620;2022-12-29T03:54:39;3.40;99.90
22678;DHT22;26259;50.214;18.620;2022-12-29T03:57:05;3.50;99.90
22678;DHT22;26259;50.214;18.620;2022-12-29T03:59:30;3.40;99.90
22678;DHT22;26259;50.214;18.620;2022-12-29T04:01:56;3.40;99.90
22678;DHT22;26259;50.214;18.620;2022-12-29T04:04:21;3.50;99.90
22678;DHT22;26259;50.214;18.620;2022-12-29T04:06:47;3.40;99.90
22678;DHT22;26259;50.214;18.620;2022-12-29T04:09:13;3.50;99.90
22678;DHT22;26259;50.214;18.620;2022-12-29T04:11:40;3.40;99.90
22678;DHT22;26259;50.214;18.620;2022-12-29T04:14:05;3.40;99.90
22678;DHT22;26259;50.214;18.620;2022-12-29T04:16:31;3.40;99.90
22678;DHT22;26259;50.214;18.620;2022-12-29T04:18:56;3.40;99.90
22678;DHT22;26259;50.214;18.620;2022-12-29T04:21:22;3.40;99.90
22678;DHT22;26259;50.214;18.620;2022-12-29T04:23:48;3.40;99.90
22678;DHT22;26259;50.214;18.620;2022-12-29T04:26:13;3.40;99.90
22678;DHT22;26259;50.214;18.620;2022-12-29T04:28:39;3.40;99.90
22678;DHT22;26259;50.214;18.620;2022-12-29T04:31:04;3.40;99.90
22678;DHT22;26259;50.214;18.620;2022-12-29T04:33:31;3.50;99.90
22678;DHT22;26259;50.214;18.620;2022-12-29T04:35:56;3.40;99.90
22678;DHT22;26259;50.214;18.620;2022-12-29T04:38:23;3.50;99.90
22678;DHT22;26259;50.214;18.620;2022-12-29T04:40:49;3.40;99.90
22678;DHT22;26259;50.214;18.620;2022-12-29T04:43:15;3.40;99.90
22678;DHT22;26259;50.214;18.620;2022-12-29T04:45:44;3.40;99.90
22678;DHT22;26259;50.214;18.620;2022-12-29T04:48:11;3.40;99.90
22678;DHT22;26259;50.214;18.620;2022-12-29T04:50:36;3.40;99.90
22678;DHT22;26259;50.214;18.620;2022-12-29T04:53:02;3.50;99.90
22678;DHT22;26259;50.214;18.620;2022-12-29T04:55:27;3.60;99.90
22678;DHT22;26259;50.214;18.620;2022-12-29T04:57:53;3.70;99.90
22678;DHT22;26259;50.214;18.620;2022-12-29T05:00:19;3.80;99.90
22678;DHT22;26259;50.214;18.620;2022-12-29T05:02:44;3.90;99.90
22678;DHT22;26259;50.214;18.620;2022-12-29T05:05:10;3.90;99.90
22678;DHT22;26259;50.214;18.620;2022-12-29T05:07:36;3.90;99.90
22678;DHT22;26259;50.214;18.620;2022-12-29T05:10:02;3.90;99.90
22678;DHT22;26259;50.214;18.620;2022-12-29T05:12:32;3.90;99.90
22678;DHT22;26259;50.214;18.620;2022-12-29T05:14:58;4.00;99.90
22678;DHT22;26259;50.214;18.620;2022-12-29T05:17:23;4.10;99.90
22678;DHT22;26259;50.214;18.620;2022-12-29T05:19:49;4.20;99.90
22678;DHT22;26259;50.214;18.620;2022-12-29T05:22:15;4.20;99.90
22678;DHT22;26259;50.214;18.620;2022-12-29T05:24:41;4.30;99.90
22678;DHT22;26259;50.214;18.620;2022-12-29T05:27:06;4.30;99.90
22678;DHT22;26259;50.214;18.620;2022-12-29T05:29:32;4.20;99.90
22678;DHT22;26259;50.214;18.620;2022-12-29T05:31:57;4.10;99.90
22678;DHT22;26259;50.214;18.620;2022-12-29T05:34:23;4.10;99.90
22678;DHT22;26259;50.214;18.620;2022-12-29T05:36:49;4.00;99.90
22678;DHT22;26259;50.214;18.620;2022-12-29T05:39:14;4.00;99.90
22678;DHT22;26259;50.214;18.620;2022-12-29T05:41:40;4.00;99.90
22678;DHT22;26259;50.214;18.620;2022-12-29T05:44:05;4.00;99.90
22678;DHT22;26259;50.214;18.620;2022-12-29T05:46:31;4.00;99.90
22678;DHT22;26259;50.214;18.620;2022-12-29T05:48:56;4.00;99.90
22678;DHT22;26259;50.214;18.620;2022-12-29T05:51:22;4.10;99.90
22678;DHT22;26259;50.214;18.620;2022-12-29T05:53:48;4.20;99.90
22678;DHT22;26259;50.214;18.620;2022-12-29T05:56:13;4.20;99.90
22678;DHT22;26259;50.214;18.620;2022-12-29T05:58:39;4.30;99.90
22678;DHT22;26259;50.214;18.620;2022-12-29T06:01:04;4.40;99.90
22678;DHT22;26259;50.214;18.620;2022-12-29T06:03:30;4.50;99.90
22678;DHT22;26259;50.214;18.620;2022-12-29T06:05:56;4.50;99.90
22678;DHT22;26259;50.214;18.620;2022-12-29T06:08:21;4.50;99.90
22678;DHT22;26259;50.214;18.620;2022-12-29T06:10:47;4.60;99.90
22678;DHT22;26259;50.214;18.620;2022-12-29T06:13:12;4.60;99.90
22678;DHT22;26259;50.214;18.620;2022-12-29T06:15:38;4.60;99.90
22678;DHT22;26259;50.214;18.620;2022-12-29T06:18:04;4.70;99.90
22678;DHT22;26259;50.214;18.620;2022-12-29T06:20:29;4.60;99.90
22678;DHT22;26259;50.214;18.620;2022-12-29T06:22:55;4.60;99.90
22678;DHT22;26259;50.214;18.620;2022-12-29T06:25:20;4.60;99.90
22678;DHT22;26259;50.214;18.620;2022-12-29T06:27:46;4.60;99.90
22678;DHT22;26259;50.214;18.620;2022-12-29T06:30:12;4.70;99.90
22678;DHT22;26259;50.214;18.620;2022-12-29T06:32:38;4.60;99.90
22678;DHT22;26259;50.214;18.620;2022-12-29T06:35:05;4.60;99.90
22678;DHT22;26259;50.214;18.620;2022-12-29T06:37:31;4.60;99.90
22678;DHT22;26259;50.214;18.620;2022-12-29T06:39:57;4.60;99.90
22678;DHT22;26259;50.214;18.620;2022-12-29T06:42:23;4.70;99.90
22678;DHT22;26259;50.214;18.620;2022-12-29T06:44:49;4.70;99.90
22678;DHT22;26259;50.214;18.620;2022-12-29T06:47:15;4.60;99.90
22678;DHT22;26259;50.214;18.620;2022-12-29T06:49:41;4.70;99.90
22678;DHT22;26259;50.214;18.620;2022-12-29T06:52:06;4.60;99.90
22678;DHT22;26259;50.214;18.620;2022-12-29T06:54:32;4.60;99.90
22678;DHT22;26259;50.214;18.620;2022-12-29T06:56:58;4.70;99.90
22678;DHT22;26259;50.214;18.620;2022-12-29T06:59:24;4.60;99.90
22678;DHT22;26259;50.214;18.620;2022-12-29T07:01:50;4.70;99.90
22678;DHT22;26259;50.214;18.620;2022-12-29T07:04:15;4.80;99.90
22678;DHT22;26259;50.214;18.620;2022-12-29T07:06:41;4.80;99.90
22678;DHT22;26259;50.214;18.620;2022-12-29T07:09:08;4.90;99.90
22678;DHT22;26259;50.214;18.620;2022-12-29T07:11:33;4.90;99.90
22678;DHT22;26259;50.214;18.620;2022-12-29T07:13:59;4.80;99.90
22678;DHT22;26259;50.214;18.620;2022-12-29T07:16:25;4.80;99.90
22678;DHT22;26259;50.214;18.620;2022-12-29T07:18:51;4.70;99.90
22678;DHT22;26259;50.214;18.620;2022-12-29T07:21:17;4.70;99.90
22678;DHT22;26259;50.214;18.620;2022-12-29T07:23:42;4.80;99.90
22678;DHT22;26259;50.214;18.620;2022-12-29T07:26:10;4.70;99.90
22678;DHT22;26259;50.214;18.620;2022-12-29T07:28:37;4.70;99.90
22678;DHT22;26259;50.214;18.620;2022-12-29T07:31:03;4.70;99.90
22678;DHT22;26259;50.214;18.620;2022-12-29T07:33:30;4.70;99.90
22678;DHT22;26259;50.214;18.620;2022-12-29T07:35:56;4.60;99.90
22678;DHT22;26259;50.214;18.620;2022-12-29T07:38:21;4.60;99.90
22678;DHT22;26259;50.214;18.620;2022-12-29T07:40:47;4.50;99.90
22678;DHT22;26259;50.214;18.620;2022-12-29T07:43:13;4.50;99.90
22678;DHT22;26259;50.214;18.620;2022-12-29T07:45:38;4.40;99.90
22678;DHT22;26259;50.214;18.620;2022-12-29T07:48:05;4.40;99.90
22678;DHT22;26259;50.214;18.620;2022-12-29T07:50:33;4.40;99.90
22678;DHT22;26259;50.214;18.620;2022-12-29T07:52:59;4.40;99.90
22678;DHT22;26259;50.214;18.620;2022-12-29T07:55:24;4.40;99.90
22678;DHT22;26259;50.214;18.620;2022-12-29T07:57:53;4.30;99.90
22678;DHT22;26259;50.214;18.620;2022-12-29T08:00:18;4.40;99.90
22678;DHT22;26259;50.214;18.620;2022-12-29T08:02:44;4.60;99.90
22678;DHT22;26259;50.214;18.620;2022-12-29T08:05:10;4.60;99.90
22678;DHT22;26259;50.214;18.620;2022-12-29T08:07:35;4.60;99.90
22678;DHT22;26259;50.214;18.620;2022-12-29T08:10:01;4.70;99.90
22678;DHT22;26259;50.214;18.620;2022-12-29T08:12:26;4.70;99.90
22678;DHT22;26259;50.214;18.620;2022-12-29T08:14:52;4.80;99.90
22678;DHT22;26259;50.214;18.620;2022-12-29T08:17:18;4.80;99.90
22678;DHT22;26259;50.214;18.620;2022-12-29T08:19:43;4.80;99.90
22678;DHT22;26259;50.214;18.620;2022-12-29T08:22:09;4.80;99.90
22678;DHT22;26259;50.214;18.620;2022-12-29T08:24:35;4.80;99.90
22678;DHT22;26259;50.214;18.620;2022-12-29T08:27:00;4.80;99.90
22678;DHT22;26259;50.214;18.620;2022-12-29T08:29:26;4.90;99.90
22678;DHT22;26259;50.214;18.620;2022-12-29T08:31:52;4.90;99.90
22678;DHT22;26259;50.214;18.620;2022-12-29T08:34:17;5.00;99.90
22678;DHT22;26259;50.214;18.620;2022-12-29T08:36:43;5.00;99.90
22678;DHT22;26259;50.214;18.620;2022-12-29T08:39:09;5.00;99.90
22678;DHT22;26259;50.214;18.620;2022-12-29T08:41:34;5.10;99.90
22678;DHT22;26259;50.214;18.620;2022-12-29T08:44:00;5.10;99.90
22678;DHT22;26259;50.214;18.620;2022-12-29T08:46:26;5.10;99.90
22678;DHT22;26259;50.214;18.620;2022-12-29T08:48:51;5.10;99.90
22678;DHT22;26259;50.214;18.620;2022-12-29T08:51:17;5.20;99.90
22678;DHT22;26259;50.214;18.620;2022-12-29T08:53:42;5.20;99.90
22678;DHT22;26259;50.214;18.620;2022-12-29T08:56:09;5.30;99.90
22678;DHT22;26259;50.214;18.620;2022-12-29T08:58:35;5.40;99.90
22678;DHT22;26259;50.214;18.620;2022-12-29T09:01:01;5.50;99.90
22678;DHT22;26259;50.214;18.620;2022-12-29T09:03:27;5.60;99.90
22678;DHT22;26259;50.214;18.620;2022-12-29T09:05:54;5.80;99.90
22678;DHT22;26259;50.214;18.620;2022-12-29T09:08:20;5.90;99.90
22678;DHT22;26259;50.214;18.620;2022-12-29T09:10:46;5.90;99.90
22678;DHT22;26259;50.214;18.620;2022-12-29T09:13:13;6.10;99.90
22678;DHT22;26259;50.214;18.620;2022-12-29T09:15:39;6.30;99.90
22678;DHT22;26259;50.214;18.620;2022-12-29T09:18:06;6.50;99.90
22678;DHT22;26259;50.214;18.620;2022-12-29T09:20:32;6.70;99.90
22678;DHT22;26259;50.214;18.620;2022-12-29T09:22:59;6.90;99.90
22678;DHT22;26259;50.214;18.620;2022-12-29T09:25:24;7.00;99.90
22678;DHT22;26259;50.214;18.620;2022-12-29T09:27:51;7.20;99.90
22678;DHT22;26259;50.214;18.620;2022-12-29T09:30:19;7.30;99.90
22678;DHT22;26259;50.214;18.620;2022-12-29T09:32:45;7.40;99.90
22678;DHT22;26259;50.214;18.620;2022-12-29T09:35:11;7.40;99.90
22678;DHT22;26259;50.214;18.620;2022-12-29T09:37:36;7.60;99.90
22678;DHT22;26259;50.214;18.620;2022-12-29T09:40:03;7.40;99.90
22678;DHT22;26259;50.214;18.620;2022-12-29T09:45:22;7.20;99.90
22678;DHT22;26259;50.214;18.620;2022-12-29T09:47:50;7.10;99.90
22678;DHT22;26259;50.214;18.620;2022-12-29T09:50:28;7.10;99.90
22678;DHT22;26259;50.214;18.620;2022-12-29T09:53:19;7.20;99.90
22678;DHT22;26259;50.214;18.620;2022-12-29T09:55:53;7.30;99.90
22678;DHT22;26259;50.214;18.620;2022-12-29T10:01:01;7.60;99.90
22678;DHT22;26259;50.214;18.620;2022-12-29T10:03:44;7.60;99.90
22678;DHT22;26259;50.214;18.620;2022-12-29T10:06:12;7.70;99.90
22678;DHT22;26259;50.214;18.620;2022-12-29T10:16:57;7.70;99.90
22678;DHT22;26259;50.214;18.620;2022-12-29T10:19:48;7.80;99.90
22678;DHT22;26259;50.214;18.620;2022-12-29T10:22:40;8.00;99.90
22678;DHT22;26259;50.214;18.620;2022-12-29T10:25:17;8.00;99.90
22678;DHT22;26259;50.214;18.620;2022-12-29T10:27:47;8.10;99.90
22678;DHT22;26259;50.214;18.620;2022-12-29T10:30:13;8.10;99.90
22678;DHT22;26259;50.214;18.620;2022-12-29T10:32:58;8.10;99.90
22678;DHT22;26259;50.214;18.620;2022-12-29T10:35:28;8.20;99.90
22678;DHT22;26259;50.214;18.620;2022-12-29T10:40:57;8.30;99.90
22678;DHT22;26259;50.214;18.620;2022-12-29T10:43:34;8.30;99.80
22678;DHT22;26259;50.214;18.620;2022-12-29T10:46:27;8.30;99.40
22678;DHT22;26259;50.214;18.620;2022-12-29T10:48:54;8.20;99.20
22678;DHT22;26259;50.214;18.620;2022-12-29T10:51:26;8.10;99.90
22678;DHT22;26259;50.214;18.620;2022-12-29T10:53:59;8.10;99.90
22678;DHT22;26259;50.214;18.620;2022-12-29T10:56:53;8.00;99.90
22678;DHT22;26259;50.214;18.620;2022-12-29T10:59:25;8.10;99.90
22678;DHT22;26259;50.214;18.620;2022-12-29T11:07:16;8.10;99.90
22678;DHT22;26259;50.214;18.620;2022-12-29T11:09:43;8.20;99.90
22678;DHT22;26259;50.214;18.620;2022-12-29T11:12:20;8.20;99.90
22678;DHT22;26259;50.214;18.620;2022-12-29T11:14:47;8.30;99.90
22678;DHT22;26259;50.214;18.620;2022-12-29T11:17:16;8.40;99.90
22678;DHT22;26259;50.214;18.620;2022-12-29T11:19:43;8.50;99.90
22678;DHT22;26259;50.214;18.620;2022-12-29T11:22:35;8.60;99.90
22678;DHT22;26259;50.214;18.620;2022-12-29T11:25:10;8.70;99.90
22678;DHT22;26259;50.214;18.620;2022-12-29T11:27:37;8.70;99.90
22678;DHT22;26259;50.214;18.620;2022-12-29T11:30:26;8.70;99.90
22678;DHT22;26259;50.214;18.620;2022-12-29T11:32:53;8.70;99.90
22678;DHT22;26259;50.214;18.620;2022-12-29T11:37:58;8.80;99.90
22678;DHT22;26259;50.214;18.620;2022-12-29T11:40:25;8.90;99.90
22678;DHT22;26259;50.214;18.620;2022-12-29T11:42:59;8.90;99.90
22678;DHT22;26259;50.214;18.620;2022-12-29T11:45:31;9.00;99.40
22678;DHT22;26259;50.214;18.620;2022-12-29T11:48:08;9.00;99.90
22678;DHT22;26259;50.214;18.620;2022-12-29T11:50:38;9.10;99.70
22678;DHT22;26259;50.214;18.620;2022-12-29T11:53:42;9.10;99.10
22678;DHT22;26259;50.214;18.620;2022-12-29T11:56:12;9.10;99.20
22678;DHT22;26259;50.214;18.620;2022-12-29T11:58:40;9.10;99.90
22678;DHT22;26259;50.214;18.620;2022-12-29T12:04:07;9.20;98.90
22678;DHT22;26259;50.214;18.620;2022-12-29T12:06:42;9.10;98.70
22678;DHT22;26259;50.214;18.620;2022-12-29T12:09:27;9.10;98.70
22678;DHT22;26259;50.214;18.620;2022-12-29T12:11:55;9.10;99.40
22678;DHT22;26259;50.214;18.620;2022-12-29T12:14:37;9.10;99.00
22678;DHT22;26259;50.214;18.620;2022-12-29T12:17:12;9.00;98.60
22678;DHT22;26259;50.214;18.620;2022-12-29T12:22:21;9.00;98.80
22678;DHT22;26259;50.214;18.620;2022-12-29T12:25:03;9.00;98.60
22678;DHT22;26259;50.214;18.620;2022-12-29T12:30:20;9.00;98.80
22678;DHT22;26259;50.214;18.620;2022-12-29T12:35:34;9.10;97.30
22678;DHT22;26259;50.214;18.620;2022-12-29T12:51:28;9.30;96.80
22678;DHT22;26259;50.214;18.620;2022-12-29T13:01:54;9.40;96.10
22678;DHT22;26259;50.214;18.620;2022-12-29T13:10:12;9.30;97.30
22678;DHT22;26259;50.214;18.620;2022-12-29T13:15:50;9.30;98.00
22678;DHT22;26259;50.214;18.620;2022-12-29T13:24:28;9.30;99.90
22678;DHT22;26259;50.214;18.620;2022-12-29T13:32:56;9.20;99.90
22678;DHT22;26259;50.214;18.620;2022-12-29T13:41:00;9.00;99.90
22678;DHT22;26259;50.214;18.620;2022-12-29T13:43:29;8.90;99.90
22678;DHT22;26259;50.214;18.620;2022-12-29T13:46:12;8.90;99.90
22678;DHT22;26259;50.214;18.620;2022-12-29T13:51:50;8.80;99.90
22678;DHT22;26259;50.214;18.620;2022-12-29T13:59:36;8.60;99.90
22678;DHT22;26259;50.214;18.620;2022-12-29T14:02:45;8.50;99.90
22678;DHT22;26259;50.214;18.620;2022-12-29T14:07:43;8.30;99.90
22678;DHT22;26259;50.214;18.620;2022-12-29T14:10:35;8.20;99.90
22678;DHT22;26259;50.214;18.620;2022-12-29T14:15:41;8.00;99.90
22678;DHT22;26259;50.214;18.620;2022-12-29T14:18:14;7.90;99.90
22678;DHT22;26259;50.214;18.620;2022-12-29T14:20:57;7.90;99.90
22678;DHT22;26259;50.214;18.620;2022-12-29T14:23:27;7.80;99.90
22678;DHT22;26259;50.214;18.620;2022-12-29T14:28:27;7.70;99.90
22678;DHT22;26259;50.214;18.620;2022-12-29T14:30:55;7.60;99.90
22678;DHT22;26259;50.214;18.620;2022-12-29T14:33:22;7.70;99.90
22678;DHT22;26259;50.214;18.620;2022-12-29T14:35:49;7.70;99.90
22678;DHT22;26259;50.214;18.620;2022-12-29T14:38:22;7.70;99.90
22678;DHT22;26259;50.214;18.620;2022-12-29T14:40:49;7.70;99.90
22678;DHT22;26259;50.214;18.620;2022-12-29T14:43:26;7.70;99.90
22678;DHT22;26259;50.214;18.620;2022-12-29T14:45:57;7.70;99.90
22678;DHT22;26259;50.214;18.620;2022-12-29T14:50:50;7.80;99.90
22678;DHT22;26259;50.214;18.620;2022-12-29T14:53:42;7.70;99.90
22678;DHT22;26259;50.214;18.620;2022-12-29T14:56:12;7.80;99.90
22678;DHT22;26259;50.214;18.620;2022-12-29T14:58:46;7.80;99.90
22678;DHT22;26259;50.214;18.620;2022-12-29T15:01:23;7.90;99.90
22678;DHT22;26259;50.214;18.620;2022-12-29T15:03:51;7.90;99.90
22678;DHT22;26259;50.214;18.620;2022-12-29T15:06:19;7.90;99.90
22678;DHT22;26259;50.214;18.620;2022-12-29T15:11:31;7.90;99.90
22678;DHT22;26259;50.214;18.620;2022-12-29T15:14:38;7.90;99.90
22678;DHT22;26259;50.214;18.620;2022-12-29T15:17:33;7.90;99.90
22678;DHT22;26259;50.214;18.620;2022-12-29T15:20:14;7.80;99.90
22678;DHT22;26259;50.214;18.620;2022-12-29T15:22:50;7.80;99.90
22678;DHT22;26259;50.214;18.620;2022-12-29T15:25:17;7.80;99.90
22678;DHT22;26259;50.214;18.620;2022-12-29T15:27:49;7.80;99.90
22678;DHT22;26259;50.214;18.620;2022-12-29T15:30:16;7.70;99.90
22678;DHT22;26259;50.214;18.620;2022-12-29T15:32:45;7.70;99.90
22678;DHT22;26259;50.214;18.620;2022-12-29T15:35:37;7.60;99.90
22678;DHT22;26259;50.214;18.620;2022-12-29T15:38:21;7.60;99.90
22678;DHT22;26259;50.214;18.620;2022-12-29T15:40:53;7.60;99.90
22678;DHT22;26259;50.214;18.620;2022-12-29T15:46:03;7.70;99.90
22678;DHT22;26259;50.214;18.620;2022-12-29T15:48:29;7.60;99.90
22678;DHT22;26259;50.214;18.620;2022-12-29T15:50:56;7.70;99.90
22678;DHT22;26259;50.214;18.620;2022-12-29T15:53:27;7.60;99.90
22678;DHT22;26259;50.214;18.620;2022-12-29T15:55:59;7.70;99.90
22678;DHT22;26259;50.214;18.620;2022-12-29T15:58:28;7.70;99.90
22678;DHT22;26259;50.214;18.620;2022-12-29T16:00:56;7.70;99.90
22678;DHT22;26259;50.214;18.620;2022-12-29T16:03:24;7.70;99.90
22678;DHT22;26259;50.214;18.620;2022-12-29T16:05:56;7.70;99.90
22678;DHT22;26259;50.214;18.620;2022-12-29T16:08:32;7.70;99.90
22678;DHT22;26259;50.214;18.620;2022-12-29T16:11:00;7.70;99.90
22678;DHT22;26259;50.214;18.620;2022-12-29T16:13:35;7.70;99.90
22678;DHT22;26259;50.214;18.620;2022-12-29T16:16:18;7.70;99.90
22678;DHT22;26259;50.214;18.620;2022-12-29T16:18:44;7.70;99.90
22678;DHT22;26259;50.214;18.620;2022-12-29T16:21:26;7.60;99.90
22678;DHT22;26259;50.214;18.620;2022-12-29T16:23:55;7.60;99.90
22678;DHT22;26259;50.214;18.620;2022-12-29T16:26:23;7.50;99.90
22678;DHT22;26259;50.214;18.620;2022-12-29T16:28:53;7.50;99.90
22678;DHT22;26259;50.214;18.620;2022-12-29T16:31:31;7.50;99.90
22678;DHT22;26259;50.214;18.620;2022-12-29T16:33:58;7.50;99.90
22678;DHT22;26259;50.214;18.620;2022-12-29T16:36:28;7.50;99.90
22678;DHT22;26259;50.214;18.620;2022-12-29T16:41:42;7.40;99.90
22678;DHT22;26259;50.214;18.620;2022-12-29T16:49:35;7.40;99.90
22678;DHT22;26259;50.214;18.620;2022-12-29T16:52:17;7.40;99.90
22678;DHT22;26259;50.214;18.620;2022-12-29T16:54:54;7.40;99.90
22678;DHT22;26259;50.214;18.620;2022-12-29T16:57:35;7.50;99.90
22678;DHT22;26259;50.214;18.620;2022-12-29T17:00:16;7.40;99.90
22678;DHT22;26259;50.214;18.620;2022-12-29T17:02:42;7.40;99.90
22678;DHT22;26259;50.214;18.620;2022-12-29T17:05:12;7.40;99.90
22678;DHT22;26259;50.214;18.620;2022-12-29T17:07:38;7.40;99.90
22678;DHT22;26259;50.214;18.620;2022-12-29T17:10:04;7.50;99.90
22678;DHT22;26259;50.214;18.620;2022-12-29T17:12:33;7.40;99.90
22678;DHT22;26259;50.214;18.620;2022-12-29T17:15:01;7.40;99.90
22678;DHT22;26259;50.214;18.620;2022-12-29T17:17:34;7.40;99.90
22678;DHT22;26259;50.214;18.620;2022-12-29T17:22:40;7.30;99.90
22678;DHT22;26259;50.214;18.620;2022-12-29T17:25:10;7.30;99.90
22678;DHT22;26259;50.214;18.620;2022-12-29T17:27:40;7.30;99.90
22678;DHT22;26259;50.214;18.620;2022-12-29T17:30:15;7.30;99.90
22678;DHT22;26259;50.214;18.620;2022-12-29T17:32:43;7.30;99.90
22678;DHT22;26259;50.214;18.620;2022-12-29T17:35:15;7.30;99.90
22678;DHT22;26259;50.214;18.620;2022-12-29T17:37:41;7.30;99.90
22678;DHT22;26259;50.214;18.620;2022-12-29T17:40:16;7.30;99.90
22678;DHT22;26259;50.214;18.620;2022-12-29T17:42:44;7.20;99.90
22678;DHT22;26259;50.214;18.620;2022-12-29T17:45:20;7.20;99.90
22678;DHT22;26259;50.214;18.620;2022-12-29T17:47:47;7.10;99.90
22678;DHT22;26259;50.214;18.620;2022-12-29T17:50:18;7.10;99.90
22678;DHT22;26259;50.214;18.620;2022-12-29T17:52:55;7.00;99.90
22678;DHT22;26259;50.214;18.620;2022-12-29T17:55:22;7.00;99.90
22678;DHT22;26259;50.214;18.620;2022-12-29T17:57:48;6.90;99.90
22678;DHT22;26259;50.214;18.620;2022-12-29T18:00:20;6.90;99.90
22678;DHT22;26259;50.214;18.620;2022-12-29T18:02:46;7.00;99.90
22678;DHT22;26259;50.214;18.620;2022-12-29T18:05:24;6.90;99.90
22678;DHT22;26259;50.214;18.620;2022-12-29T18:07:51;6.90;99.90
22678;DHT22;26259;50.214;18.620;2022-12-29T18:10:18;7.00;99.90
22678;DHT22;26259;50.214;18.620;2022-12-29T18:12:46;7.00;99.90
22678;DHT22;26259;50.214;18.620;2022-12-29T18:15:35;7.00;99.90
22678;DHT22;26259;50.214;18.620;2022-12-29T18:18:21;7.00;99.90
22678;DHT22;26259;50.214;18.620;2022-12-29T18:20:49;6.90;99.90